sensor_id;sensor_type;location;lat;lon;timestamp;pressure;altitude;pressure_sealevel;temperature;humidity
34237;BME280;20501;45.956;13.632;2023-07-20T00:02:15;63816.28;;;-148.00;100.00
34237;BME280;20501;45.956;13.632;2023-07-20T00:04:41;63816.28;;;-148.00;100.00
34237;BME280;20501;45.956;13.632;2023-07-20T00:07:06;63816.28;;;-148.00;100.00
34237;BME280;20501;45.956;13.632;2023-07-20T00:09:31;63816.28;;;-148.00;100.00
34237;BME280;20501;45.956;13.632;2023-07-20T00:11:57;63816.28;;;-148.00;100.00
34237;BME280;20501;45.956;13.632;2023-07-20T00:14:25;63816.28;;;-148.00;100.00
34237;BME280;20501;45.956;13.632;2023-07-20T00:16:51;63816.28;;;-148.00;100.00
34237;BME280;20501;45.956;13.632;2023-07-20T00:19:25;63816.28;;;-148.00;100.00
34237;BME280;20501;45.956;13.632;2023-07-20T00:21:51;63816.28;;;-148.00;100.00
34237;BME280;20501;45.956;13.632;2023-07-20T00:24:16;63816.28;;;-148.00;100.00
34237;BME280;20501;45.956;13.632;2023-07-20T00:26:42;63816.28;;;-148.00;100.00
34237;BME280;20501;45.956;13.632;2023-07-20T00:29:07;63816.28;;;-148.00;100.00
34237;BME280;20501;45.956;13.632;2023-07-20T00:31:32;63816.28;;;-148.00;100.00
34237;BME280;20501;45.956;13.632;2023-07-20T00:34:00;63816.28;;;-148.00;100.00
34237;BME280;20501;45.956;13.632;2023-07-20T00:36:25;63816.28;;;-148.00;100.00
34237;BME280;20501;45.956;13.632;2023-07-20T00:38:51;63816.28;;;-148.00;100.00
34237;BME280;20501;45.956;13.632;2023-07-20T00:41:16;63816.28;;;-148.00;100.00
34237;BME280;20501;45.956;13.632;2023-07-20T00:43:42;63816.28;;;-148.00;100.00
34237;BME280;20501;45.956;13.632;2023-07-20T00:46:08;63816.28;;;-148.00;100.00
34237;BME280;20501;45.956;13.632;2023-07-20T00:48:34;63816.28;;;-148.00;100.00
34237;BME280;20501;45.956;13.632;2023-07-20T00:51:01;63816.28;;;-148.00;100.00
34237;BME280;20501;45.956;13.632;2023-07-20T00:53:27;63816.28;;;-148.00;100.00
34237;BME280;20501;45.956;13.632;2023-07-20T00:55:53;63816.28;;;-148.00;100.00
34237;BME280;20501;45.956;13.632;2023-07-20T00:58:19;63816.28;;;-148.00;100.00
34237;BME280;20501;45.956;13.632;2023-07-20T01:00:45;63816.28;;;-148.00;100.00
34237;BME280;20501;45.956;13.632;2023-07-20T01:03:10;63816.28;;;-148.00;100.00
34237;BME280;20501;45.956;13.632;2023-07-20T01:08:31;63816.28;;;-148.00;100.00
34237;BME280;20501;45.956;13.632;2023-07-20T01:11:04;63816.28;;;-148.00;100.00
34237;BME280;20501;45.956;13.632;2023-07-20T01:13:32;63816.28;;;-148.00;100.00
34237;BME280;20501;45.956;13.632;2023-07-20T01:16:01;63816.28;;;-148.00;100.00
34237;BME280;20501;45.956;13.632;2023-07-20T01:18:27;63816.28;;;-148.00;100.00
34237;BME280;20501;45.956;13.632;2023-07-20T01:21:01;63816.28;;;-148.00;100.00
34237;BME280;20501;45.956;13.632;2023-07-20T01:30:29;63816.28;;;-148.00;100.00
34237;BME280;20501;45.956;13.632;2023-07-20T01:33:00;63816.28;;;-148.00;100.00
34237;BME280;20501;45.956;13.632;2023-07-20T01:35:28;63816.28;;;-148.00;100.00
34237;BME280;20501;45.956;13.632;2023-07-20T01:37:54;63816.28;;;-148.00;100.00
34237;BME280;20501;45.956;13.632;2023-07-20T01:40:22;63816.28;;;-148.00;100.00
34237;BME280;20501;45.956;13.632;2023-07-20T01:42:48;63816.28;;;-148.00;100.00
34237;BME280;20501;45.956;13.632;2023-07-20T01:45:14;63816.28;;;-148.00;100.00
34237;BME280;20501;45.956;13.632;2023-07-20T01:47:40;63816.28;;;-148.00;100.00
34237;BME280;20501;45.956;13.632;2023-07-20T01:50:06;63816.28;;;-148.00;100.00
34237;BME280;20501;45.956;13.632;2023-07-20T01:52:31;63816.28;;;-148.00;100.00
34237;BME280;20501;45.956;13.632;2023-07-20T01:54:57;63816.28;;;-148.00;100.00
34237;BME280;20501;45.956;13.632;2023-07-20T01:57:23;63816.28;;;-148.00;100.00
34237;BME280;20501;45.956;13.632;2023-07-20T01:59:48;63816.28;;;-148.00;100.00
34237;BME280;20501;45.956;13.632;2023-07-20T02:02:14;63816.28;;;-148.00;100.00
34237;BME280;20501;45.956;13.632;2023-07-20T02:04:39;63816.28;;;-148.00;100.00
34237;BME280;20501;45.956;13.632;2023-07-20T02:07:05;63816.28;;;-148.00;100.00
34237;BME280;20501;45.956;13.632;2023-07-20T02:09:30;63816.28;;;-148.00;100.00
34237;BME280;20501;45.956;13.632;2023-07-20T02:11:56;63816.28;;;-148.00;100.00
34237;BME280;20501;45.956;13.632;2023-07-20T02:14:21;63816.28;;;-148.00;100.00
34237;BME280;20501;45.956;13.632;2023-07-20T02:16:48;63816.28;;;-148.00;100.00
34237;BME280;20501;45.956;13.632;2023-07-20T02:19:17;63816.28;;;-148.00;100.00
34237;BME280;20501;45.956;13.632;2023-07-20T02:21:43;63816.28;;;-148.00;100.00
34237;BME280;20501;45.956;13.632;2023-07-20T02:24:08;63816.28;;;-148.00;100.00
34237;BME280;20501;45.956;13.632;2023-07-20T02:26:33;63816.28;;;-148.00;100.00
34237;BME280;20501;45.956;13.632;2023-07-20T02:28:59;63816.28;;;-148.00;100.00
34237;BME280;20501;45.956;13.632;2023-07-20T02:31:24;63816.28;;;-148.00;100.00
34237;BME280;20501;45.956;13.632;2023-07-20T02:33:50;63816.28;;;-148.00;100.00
34237;BME280;20501;45.956;13.632;2023-07-20T02:36:15;63816.28;;;-148.00;100.00
34237;BME280;20501;45.956;13.632;2023-07-20T02:38:42;63816.28;;;-148.00;100.00
34237;BME280;20501;45.956;13.632;2023-07-20T02:41:07;63816.28;;;-148.00;100.00
34237;BME280;20501;45.956;13.632;2023-07-20T02:43:33;63816.28;;;-148.00;100.00
34237;BME280;20501;45.956;13.632;2023-07-20T02:45:58;63816.28;;;-148.00;100.00
34237;BME280;20501;45.956;13.632;2023-07-20T02:48:24;63816.28;;;-148.00;100.00
34237;BME280;20501;45.956;13.632;2023-07-20T02:50:49;63816.28;;;-148.00;100.00
34237;BME280;20501;45.956;13.632;2023-07-20T02:53:14;63816.28;;;-148.00;100.00
34237;BME280;20501;45.956;13.632;2023-07-20T02:55:40;63816.28;;;-148.00;100.00
34237;BME280;20501;45.956;13.632;2023-07-20T02:58:05;63816.28;;;-148.00;100.00
34237;BME280;20501;45.956;13.632;2023-07-20T03:00:30;63816.28;;;-148.00;100.00
34237;BME280;20501;45.956;13.632;2023-07-20T03:02:56;63816.28;;;-148.00;100.00
34237;BME280;20501;45.956;13.632;2023-07-20T03:05:22;63816.28;;;-148.00;100.00
34237;BME280;20501;45.956;13.632;2023-07-20T03:07:50;63816.28;;;-148.00;100.00
34237;BME280;20501;45.956;13.632;2023-07-20T03:10:16;63816.28;;;-148.00;100.00
34237;BME280;20501;45.956;13.632;2023-07-20T03:12:42;63816.28;;;-148.00;100.00
34237;BME280;20501;45.956;13.632;2023-07-20T03:15:08;63816.28;;;-148.00;100.00
34237;BME280;20501;45.956;13.632;2023-07-20T03:17:33;63816.28;;;-148.00;100.00
34237;BME280;20501;45.956;13.632;2023-07-20T03:19:59;63816.28;;;-148.00;100.00
34237;BME280;20501;45.956;13.632;2023-07-20T03:22:25;63816.28;;;-148.00;100.00
34237;BME280;20501;45.956;13.632;2023-07-20T03:24:51;63816.28;;;-148.00;100.00
34237;BME280;20501;45.956;13.632;2023-07-20T03:27:17;63816.28;;;-148.00;100.00
34237;BME280;20501;45.956;13.632;2023-07-20T03:29:43;63816.28;;;-148.00;100.00
34237;BME280;20501;45.956;13.632;2023-07-20T03:32:09;63816.28;;;-148.00;100.00
34237;BME280;20501;45.956;13.632;2023-07-20T03:34:35;63816.28;;;-148.00;100.00
34237;BME280;20501;45.956;13.632;2023-07-20T03:37:00;63816.28;;;-148.00;100.00
34237;BME280;20501;45.956;13.632;2023-07-20T03:39:26;63816.28;;;-148.00;100.00
34237;BME280;20501;45.956;13.632;2023-07-20T03:41:52;63816.28;;;-148.00;100.00
34237;BME280;20501;45.956;13.632;2023-07-20T03:44:17;63816.28;;;-148.00;100.00
34237;BME280;20501;45.956;13.632;2023-07-20T03:46:43;63816.28;;;-148.00;100.00
34237;BME280;20501;45.956;13.632;2023-07-20T03:49:09;63816.28;;;-148.00;100.00
34237;BME280;20501;45.956;13.632;2023-07-20T03:51:35;63816.28;;;-148.00;100.00
34237;BME280;20501;45.956;13.632;2023-07-20T03:54:01;63816.28;;;-148.00;100.00
34237;BME280;20501;45.956;13.632;2023-07-20T03:56:26;63816.28;;;-148.00;100.00
34237;BME280;20501;45.956;13.632;2023-07-20T03:58:51;63816.28;;;-148.00;100.00
34237;BME280;20501;45.956;13.632;2023-07-20T04:01:17;63816.28;;;-148.00;100.00
34237;BME280;20501;45.956;13.632;2023-07-20T04:03:42;63816.28;;;-148.00;100.00
34237;BME280;20501;45.956;13.632;2023-07-20T04:06:08;63816.28;;;-148.00;100.00
34237;BME280;20501;45.956;13.632;2023-07-20T04:08:34;63816.28;;;-148.00;100.00
34237;BME280;20501;45.956;13.632;2023-07-20T04:11:01;63816.28;;;-148.00;100.00
34237;BME280;20501;45.956;13.632;2023-07-20T04:13:27;63816.28;;;-148.00;100.00
34237;BME280;20501;45.956;13.632;2023-07-20T04:15:53;63816.28;;;-148.00;100.00
34237;BME280;20501;45.956;13.632;2023-07-20T04:18:18;63816.28;;;-148.00;100.00
34237;BME280;20501;45.956;13.632;2023-07-20T04:20:44;63816.28;;;-148.00;100.00
34237;BME280;20501;45.956;13.632;2023-07-20T04:23:10;63816.28;;;-148.00;100.00
34237;BME280;20501;45.956;13.632;2023-07-20T04:25:35;63816.28;;;-148.00;100.00
34237;BME280;20501;45.956;13.632;2023-07-20T04:28:05;63816.28;;;-148.00;100.00
34237;BME280;20501;45.956;13.632;2023-07-20T04:30:34;63816.28;;;-148.00;100.00
34237;BME280;20501;45.956;13.632;2023-07-20T04:33:00;63816.28;;;-148.00;100.00
34237;BME280;20501;45.956;13.632;2023-07-20T04:35:51;63816.28;;;-148.00;100.00
34237;BME280;20501;45.956;13.632;2023-07-20T04:38:17;63816.28;;;-148.00;100.00
34237;BME280;20501;45.956;13.632;2023-07-20T04:40:47;63816.28;;;-148.00;100.00
34237;BME280;20501;45.956;13.632;2023-07-20T04:43:17;63816.28;;;-148.00;100.00
34237;BME280;20501;45.956;13.632;2023-07-20T04:45:42;63816.28;;;-148.00;100.00
34237;BME280;20501;45.956;13.632;2023-07-20T04:48:13;63816.28;;;-148.00;100.00
34237;BME280;20501;45.956;13.632;2023-07-20T04:50:40;63816.28;;;-148.00;100.00
34237;BME280;20501;45.956;13.632;2023-07-20T04:53:05;63816.28;;;-148.00;100.00
34237;BME280;20501;45.956;13.632;2023-07-20T04:55:31;63816.28;;;-148.00;100.00
34237;BME280;20501;45.956;13.632;2023-07-20T04:58:00;63816.28;;;-148.00;100.00
34237;BME280;20501;45.956;13.632;2023-07-20T05:00:25;63816.28;;;-148.00;100.00
34237;BME280;20501;45.956;13.632;2023-07-20T05:02:51;63816.28;;;-148.00;100.00
34237;BME280;20501;45.956;13.632;2023-07-20T05:05:16;63816.28;;;-148.00;100.00
34237;BME280;20501;45.956;13.632;2023-07-20T05:07:42;63816.28;;;-148.00;100.00
34237;BME280;20501;45.956;13.632;2023-07-20T05:10:07;63816.28;;;-148.00;100.00
34237;BME280;20501;45.956;13.632;2023-07-20T05:12:33;63816.28;;;-148.00;100.00
34237;BME280;20501;45.956;13.632;2023-07-20T05:14:58;63816.28;;;-148.00;100.00
34237;BME280;20501;45.956;13.632;2023-07-20T05:17:24;63816.28;;;-148.00;100.00
34237;BME280;20501;45.956;13.632;2023-07-20T05:19:50;63816.28;;;-148.00;100.00
34237;BME280;20501;45.956;13.632;2023-07-20T05:22:16;63816.28;;;-148.00;100.00
34237;BME280;20501;45.956;13.632;2023-07-20T05:24:41;63816.28;;;-148.00;100.00
34237;BME280;20501;45.956;13.632;2023-07-20T05:27:06;63816.28;;;-148.00;100.00
34237;BME280;20501;45.956;13.632;2023-07-20T05:29:32;63816.28;;;-148.00;100.00
34237;BME280;20501;45.956;13.632;2023-07-20T05:31:58;63816.28;;;-148.00;100.00
34237;BME280;20501;45.956;13.632;2023-07-20T05:34:23;63816.28;;;-148.00;100.00
34237;BME280;20501;45.956;13.632;2023-07-20T05:36:49;63816.28;;;-148.00;100.00
34237;BME280;20501;45.956;13.632;2023-07-20T05:39:17;63816.28;;;-148.00;100.00
34237;BME280;20501;45.956;13.632;2023-07-20T05:41:43;63816.28;;;-148.00;100.00
34237;BME280;20501;45.956;13.632;2023-07-20T05:44:08;63816.28;;;-148.00;100.00
34237;BME280;20501;45.956;13.632;2023-07-20T05:46:34;63816.28;;;-148.00;100.00
34237;BME280;20501;45.956;13.632;2023-07-20T05:48:59;63816.28;;;-148.00;100.00
34237;BME280;20501;45.956;13.632;2023-07-20T05:51:25;63816.28;;;-148.00;100.00
34237;BME280;20501;45.956;13.632;2023-07-20T05:53:50;63816.28;;;-148.00;100.00
34237;BME280;20501;45.956;13.632;2023-07-20T05:56:16;63816.28;;;-148.00;100.00
34237;BME280;20501;45.956;13.632;2023-07-20T05:58:42;63816.28;;;-148.00;100.00
34237;BME280;20501;45.956;13.632;2023-07-20T06:01:07;63816.28;;;-148.00;100.00
34237;BME280;20501;45.956;13.632;2023-07-20T06:03:33;63816.28;;;-148.00;100.00
34237;BME280;20501;45.956;13.632;2023-07-20T06:06:02;63816.28;;;-148.00;100.00
34237;BME280;20501;45.956;13.632;2023-07-20T06:08:29;63816.28;;;-148.00;100.00
34237;BME280;20501;45.956;13.632;2023-07-20T06:10:55;63816.28;;;-148.00;100.00
34237;BME280;20501;45.956;13.632;2023-07-20T06:13:20;63816.28;;;-148.00;100.00
34237;BME280;20501;45.956;13.632;2023-07-20T06:15:46;63816.28;;;-148.00;100.00
34237;BME280;20501;45.956;13.632;2023-07-20T06:18:13;63816.28;;;-148.00;100.00
34237;BME280;20501;45.956;13.632;2023-07-20T06:20:38;63816.28;;;-148.00;100.00
34237;BME280;20501;45.956;13.632;2023-07-20T06:23:04;63816.28;;;-148.00;100.00
34237;BME280;20501;45.956;13.632;2023-07-20T06:25:29;63816.28;;;-148.00;100.00
34237;BME280;20501;45.956;13.632;2023-07-20T06:27:55;63816.28;;;-148.00;100.00
34237;BME280;20501;45.956;13.632;2023-07-20T06:30:21;63816.28;;;-148.00;100.00
34237;BME280;20501;45.956;13.632;2023-07-20T06:32:47;63816.28;;;-148.00;100.00
34237;BME280;20501;45.956;13.632;2023-07-20T06:35:12;63816.28;;;-148.00;100.00
34237;BME280;20501;45.956;13.632;2023-07-20T06:37:38;63816.28;;;-148.00;100.00
34237;BME280;20501;45.956;13.632;2023-07-20T06:40:03;63816.28;;;-148.00;100.00
34237;BME280;20501;45.956;13.632;2023-07-20T06:42:30;63816.28;;;-148.00;100.00
34237;BME280;20501;45.956;13.632;2023-07-20T06:44:56;63816.28;;;-148.00;100.00
34237;BME280;20501;45.956;13.632;2023-07-20T06:47:22;63816.28;;;-148.00;100.00
34237;BME280;20501;45.956;13.632;2023-07-20T06:49:47;63816.28;;;-148.00;100.00
34237;BME280;20501;45.956;13.632;2023-07-20T06:52:13;63816.28;;;-148.00;100.00
34237;BME280;20501;45.956;13.632;2023-07-20T06:54:38;63816.28;;;-148.00;100.00
34237;BME280;20501;45.956;13.632;2023-07-20T06:57:04;63816.28;;;-148.00;100.00
34237;BME280;20501;45.956;13.632;2023-07-20T06:59:30;63816.28;;;-148.00;100.00
34237;BME280;20501;45.956;13.632;2023-07-20T07:01:55;63816.28;;;-148.00;100.00
34237;BME280;20501;45.956;13.632;2023-07-20T07:04:21;63816.28;;;-148.00;100.00
34237;BME280;20501;45.956;13.632;2023-07-20T07:06:46;63816.28;;;-148.00;100.00
34237;BME280;20501;45.956;13.632;2023-07-20T07:09:12;63816.28;;;-148.00;100.00
34237;BME280;20501;45.956;13.632;2023-07-20T07:11:37;63816.28;;;-148.00;100.00
34237;BME280;20501;45.956;13.632;2023-07-20T07:14:03;63816.28;;;-148.00;100.00
34237;BME280;20501;45.956;13.632;2023-07-20T07:16:28;63816.28;;;-148.00;100.00
34237;BME280;20501;45.956;13.632;2023-07-20T07:18:53;63816.28;;;-148.00;100.00
34237;BME280;20501;45.956;13.632;2023-07-20T07:21:19;63816.28;;;-148.00;100.00
34237;BME280;20501;45.956;13.632;2023-07-20T07:23:45;63816.28;;;-148.00;100.00
34237;BME280;20501;45.956;13.632;2023-07-20T07:26:11;63816.28;;;-148.00;100.00
34237;BME280;20501;45.956;13.632;2023-07-20T07:28:37;63816.28;;;-148.00;100.00
34237;BME280;20501;45.956;13.632;2023-07-20T07:31:06;63816.28;;;-148.00;100.00
34237;BME280;20501;45.956;13.632;2023-07-20T07:33:32;63816.28;;;-148.00;100.00
34237;BME280;20501;45.956;13.632;2023-07-20T07:35:57;63816.28;;;-148.00;100.00
34237;BME280;20501;45.956;13.632;2023-07-20T07:38:23;63816.28;;;-148.00;100.00
34237;BME280;20501;45.956;13.632;2023-07-20T07:40:48;63816.28;;;-148.00;100.00
34237;BME280;20501;45.956;13.632;2023-07-20T07:43:14;63816.28;;;-148.00;100.00
34237;BME280;20501;45.956;13.632;2023-07-20T07:45:39;63816.28;;;-148.00;100.00
34237;BME280;20501;45.956;13.632;2023-07-20T07:48:06;63816.28;;;-148.00;100.00
34237;BME280;20501;45.956;13.632;2023-07-20T07:50:33;63816.28;;;-148.00;100.00
34237;BME280;20501;45.956;13.632;2023-07-20T07:52:58;63816.28;;;-148.00;100.00
34237;BME280;20501;45.956;13.632;2023-07-20T07:55:24;63816.28;;;-148.00;100.00
34237;BME280;20501;45.956;13.632;2023-07-20T07:57:52;63816.28;;;-148.00;100.00
34237;BME280;20501;45.956;13.632;2023-07-20T08:00:18;63816.28;;;-148.00;100.00
34237;BME280;20501;45.956;13.632;2023-07-20T08:02:44;63816.28;;;-148.00;100.00
34237;BME280;20501;45.956;13.632;2023-07-20T08:05:11;63816.28;;;-148.00;100.00
34237;BME280;20501;45.956;13.632;2023-07-20T08:07:37;63816.28;;;-148.00;100.00
34237;BME280;20501;45.956;13.632;2023-07-20T08:10:03;63816.28;;;-148.00;100.00
34237;BME280;20501;45.956;13.632;2023-07-20T08:12:28;63816.28;;;-148.00;100.00
34237;BME280;20501;45.956;13.632;2023-07-20T08:14:54;63816.28;;;-148.00;100.00
34237;BME280;20501;45.956;13.632;2023-07-20T08:17:19;63816.28;;;-148.00;100.00
34237;BME280;20501;45.956;13.632;2023-07-20T08:19:46;63816.28;;;-148.00;100.00
34237;BME280;20501;45.956;13.632;2023-07-20T08:22:11;63816.28;;;-148.00;100.00
34237;BME280;20501;45.956;13.632;2023-07-20T08:24:40;63816.28;;;-148.00;100.00
34237;BME280;20501;45.956;13.632;2023-07-20T08:27:06;63816.28;;;-148.00;100.00
34237;BME280;20501;45.956;13.632;2023-07-20T08:29:32;63816.28;;;-148.00;100.00
34237;BME280;20501;45.956;13.632;2023-07-20T08:31:57;63816.28;;;-148.00;100.00
34237;BME280;20501;45.956;13.632;2023-07-20T08:34:23;63816.28;;;-148.00;100.00
34237;BME280;20501;45.956;13.632;2023-07-20T08:36:48;63816.28;;;-148.00;100.00
34237;BME280;20501;45.956;13.632;2023-07-20T08:39:14;63816.28;;;-148.00;100.00
34237;BME280;20501;45.956;13.632;2023-07-20T08:41:42;63816.28;;;-148.00;100.00
34237;BME280;20501;45.956;13.632;2023-07-20T08:44:08;63816.28;;;-148.00;100.00
34237;BME280;20501;45.956;13.632;2023-07-20T08:46:35;63816.28;;;-148.00;100.00
34237;BME280;20501;45.956;13.632;2023-07-20T08:49:02;63816.28;;;-148.00;100.00
34237;BME280;20501;45.956;13.632;2023-07-20T08:51:29;63816.28;;;-148.00;100.00
34237;BME280;20501;45.956;13.632;2023-07-20T08:53:55;63816.28;;;-148.00;100.00
34237;BME280;20501;45.956;13.632;2023-07-20T08:56:23;63816.28;;;-148.00;100.00
34237;BME280;20501;45.956;13.632;2023-07-20T08:58:54;63816.28;;;-148.00;100.00
34237;BME280;20501;45.956;13.632;2023-07-20T09:01:20;63816.28;;;-148.00;100.00
34237;BME280;20501;45.956;13.632;2023-07-20T09:03:46;63816.28;;;-148.00;100.00
34237;BME280;20501;45.956;13.632;2023-07-20T09:06:13;63816.28;;;-148.00;100.00
34237;BME280;20501;45.956;13.632;2023-07-20T09:08:42;63816.28;;;-148.00;100.00
34237;BME280;20501;45.956;13.632;2023-07-20T09:11:11;63816.28;;;-148.00;100.00
34237;BME280;20501;45.956;13.632;2023-07-20T09:13:37;63816.28;;;-148.00;100.00
34237;BME280;20501;45.956;13.632;2023-07-20T09:16:03;63816.28;;;-148.00;100.00
34237;BME280;20501;45.956;13.632;2023-07-20T09:18:31;63816.28;;;-148.00;100.00
34237;BME280;20501;45.956;13.632;2023-07-20T09:21:06;63816.28;;;-148.00;100.00
34237;BME280;20501;45.956;13.632;2023-07-20T09:23:37;63816.28;;;-148.00;100.00
34237;BME280;20501;45.956;13.632;2023-07-20T09:26:13;63816.28;;;-148.00;100.00
34237;BME280;20501;45.956;13.632;2023-07-20T09:28:43;63816.28;;;-148.00;100.00
34237;BME280;20501;45.956;13.632;2023-07-20T09:31:16;63816.28;;;-148.00;100.00
34237;BME280;20501;45.956;13.632;2023-07-20T09:33:42;63816.28;;;-148.00;100.00
34237;BME280;20501;45.956;13.632;2023-07-20T09:36:09;63816.28;;;-148.00;100.00
34237;BME280;20501;45.956;13.632;2023-07-20T09:38:37;63816.28;;;-148.00;100.00
34237;BME280;20501;45.956;13.632;2023-07-20T09:41:05;63816.28;;;-148.00;100.00
34237;BME280;20501;45.956;13.632;2023-07-20T09:43:31;63816.28;;;-148.00;100.00
34237;BME280;20501;45.956;13.632;2023-07-20T09:45:58;63816.28;;;-148.00;100.00
34237;BME280;20501;45.956;13.632;2023-07-20T09:48:24;63816.28;;;-148.00;100.00
34237;BME280;20501;45.956;13.632;2023-07-20T09:50:50;63816.28;;;-148.00;100.00
34237;BME280;20501;45.956;13.632;2023-07-20T09:53:17;63816.28;;;-148.00;100.00
34237;BME280;20501;45.956;13.632;2023-07-20T09:55:49;63816.28;;;-148.00;100.00
34237;BME280;20501;45.956;13.632;2023-07-20T09:58:16;63816.28;;;-148.00;100.00
34237;BME280;20501;45.956;13.632;2023-07-20T10:00:42;63816.28;;;-148.00;100.00
34237;BME280;20501;45.956;13.632;2023-07-20T10:03:11;63816.28;;;-148.00;100.00
34237;BME280;20501;45.956;13.632;2023-07-20T10:05:40;63816.28;;;-148.00;100.00
34237;BME280;20501;45.956;13.632;2023-07-20T10:08:12;63816.28;;;-148.00;100.00
34237;BME280;20501;45.956;13.632;2023-07-20T10:10:40;63816.28;;;-148.00;100.00
34237;BME280;20501;45.956;13.632;2023-07-20T10:13:10;63816.28;;;-148.00;100.00
34237;BME280;20501;45.956;13.632;2023-07-20T10:15:50;63816.28;;;-148.00;100.00
34237;BME280;20501;45.956;13.632;2023-07-20T10:21:15;63816.28;;;-148.00;100.00
34237;BME280;20501;45.956;13.632;2023-07-20T10:23:42;63816.28;;;-148.00;100.00
34237;BME280;20501;45.956;13.632;2023-07-20T10:26:08;63816.28;;;-148.00;100.00
34237;BME280;20501;45.956;13.632;2023-07-20T10:28:36;63816.28;;;-148.00;100.00
34237;BME280;20501;45.956;13.632;2023-07-20T10:31:02;63816.28;;;-148.00;100.00
34237;BME280;20501;45.956;13.632;2023-07-20T10:33:27;63816.28;;;-148.00;100.00
34237;BME280;20501;45.956;13.632;2023-07-20T10:35:55;63816.28;;;-148.00;100.00
34237;BME280;20501;45.956;13.632;2023-07-20T10:38:40;63816.28;;;-148.00;100.00
34237;BME280;20501;45.956;13.632;2023-07-20T10:41:35;63816.28;;;-148.00;100.00
34237;BME280;20501;45.956;13.632;2023-07-20T10:44:06;63816.28;;;-148.00;100.00
34237;BME280;20501;45.956;13.632;2023-07-20T10:49:05;63816.28;;;-148.00;100.00
34237;BME280;20501;45.956;13.632;2023-07-20T10:51:42;63816.28;;;-148.00;100.00
34237;BME280;20501;45.956;13.632;2023-07-20T10:54:54;63816.28;;;-148.00;100.00
34237;BME280;20501;45.956;13.632;2023-07-20T10:57:21;63816.28;;;-148.00;100.00
34237;BME280;20501;45.956;13.632;2023-07-20T10:59:47;63816.28;;;-148.00;100.00
34237;BME280;20501;45.956;13.632;2023-07-20T11:02:12;63816.28;;;-148.00;100.00
34237;BME280;20501;45.956;13.632;2023-07-20T11:04:39;63816.28;;;-148.00;100.00
34237;BME280;20501;45.956;13.632;2023-07-20T11:07:05;63816.28;;;-148.00;100.00
34237;BME280;20501;45.956;13.632;2023-07-20T11:09:35;63816.28;;;-148.00;100.00
34237;BME280;20501;45.956;13.632;2023-07-20T11:12:14;63816.28;;;-148.00;100.00
34237;BME280;20501;45.956;13.632;2023-07-20T11:14:53;63816.28;;;-148.00;100.00
34237;BME280;20501;45.956;13.632;2023-07-20T11:17:20;63816.28;;;-148.00;100.00
34237;BME280;20501;45.956;13.632;2023-07-20T11:19:56;63816.28;;;-148.00;100.00
34237;BME280;20501;45.956;13.632;2023-07-20T11:34:20;99995.47;;;29.84;39.12
34237;BME280;20501;45.956;13.632;2023-07-20T11:36:50;99992.69;;;29.79;40.22
34237;BME280;20501;45.956;13.632;2023-07-20T11:39:17;99986.81;;;29.86;39.67
34237;BME280;20501;45.956;13.632;2023-07-20T11:41:50;99987.81;;;30.16;38.44
34237;BME280;20501;45.956;13.632;2023-07-20T11:44:17;99987.94;;;29.90;39.99
34237;BME280;20501;45.956;13.632;2023-07-20T11:46:43;99999.91;;;30.46;39.82
34237;BME280;20501;45.956;13.632;2023-07-20T11:49:12;99999.47;;;30.28;39.05
34237;BME280;20501;45.956;13.632;2023-07-20T11:51:39;99997.53;;;30.29;38.89
34237;BME280;20501;45.956;13.632;2023-07-20T11:54:07;99985.66;;;29.92;40.00
34237;BME280;20501;45.956;13.632;2023-07-20T11:56:34;99989.00;;;30.04;40.68
34237;BME280;20501;45.956;13.632;2023-07-20T11:59:00;99985.94;;;30.01;40.02
34237;BME280;20501;45.956;13.632;2023-07-20T12:01:27;99988.38;;;30.23;39.64
34237;BME280;20501;45.956;13.632;2023-07-20T12:04:03;99976.19;;;29.93;41.25
34237;BME280;20501;45.956;13.632;2023-07-20T12:06:30;99982.66;;;29.93;41.14
34237;BME280;20501;45.956;13.632;2023-07-20T12:08:59;99977.84;;;30.04;39.92
34237;BME280;20501;45.956;13.632;2023-07-20T12:11:35;99971.34;;;29.07;43.19
34237;BME280;20501;45.956;13.632;2023-07-20T12:14:02;99974.56;;;29.87;41.03
34237;BME280;20501;45.956;13.632;2023-07-20T12:16:29;99968.44;;;29.90;40.43
34237;BME280;20501;45.956;13.632;2023-07-20T12:21:30;99969.53;;;29.99;41.19
34237;BME280;20501;45.956;13.632;2023-07-20T12:23:57;99957.81;;;30.02;40.74
34237;BME280;20501;45.956;13.632;2023-07-20T12:26:24;99965.06;;;30.03;40.54
34237;BME280;20501;45.956;13.632;2023-07-20T12:28:51;99953.41;;;29.86;41.43
34237;BME280;20501;45.956;13.632;2023-07-20T12:31:16;99949.22;;;29.88;41.53
34237;BME280;20501;45.956;13.632;2023-07-20T12:33:42;99950.16;;;29.68;41.51
34237;BME280;20501;45.956;13.632;2023-07-20T12:36:08;99943.75;;;30.28;40.77
34237;BME280;20501;45.956;13.632;2023-07-20T12:38:35;99946.59;;;30.18;39.89
34237;BME280;20501;45.956;13.632;2023-07-20T12:41:01;99946.28;;;29.54;41.62
34237;BME280;20501;45.956;13.632;2023-07-20T12:43:27;99945.56;;;29.93;41.80
34237;BME280;20501;45.956;13.632;2023-07-20T12:45:52;99941.53;;;30.30;41.05
34237;BME280;20501;45.956;13.632;2023-07-20T12:48:18;99941.09;;;30.13;40.76
34237;BME280;20501;45.956;13.632;2023-07-20T12:50:43;99934.03;;;30.25;41.08
34237;BME280;20501;45.956;13.632;2023-07-20T12:53:09;99939.34;;;30.22;41.47